createdAt,value
2023-04-06T00:01:37.745Z,99.90
2023-04-06T00:04:25.285Z,99.90
2023-04-06T00:07:12.923Z,99.90
2023-04-06T00:10:00.499Z,99.90
2023-04-06T00:12:47.899Z,99.90
2023-04-06T00:15:35.617Z,99.90
2023-04-06T00:18:24.098Z,99.90
2023-04-06T00:21:15.616Z,99.90
2023-04-06T00:24:04.857Z,99.90
2023-04-06T00:26:52.333Z,99.90
2023-04-06T00:29:40.992Z,99.90
2023-04-06T00:32:28.876Z,99.90
2023-04-06T00:35:16.739Z,99.90
2023-04-06T00:38:04.163Z,99.90
2023-04-06T00:40:51.657Z,99.90
2023-04-06T00:43:39.050Z,99.90
2023-04-06T00:46:26.500Z,99.90
2023-04-06T00:49:13.917Z,99.90
2023-04-06T00:52:02.569Z,99.90
2023-04-06T00:54:50.888Z,99.90
2023-04-06T00:57:38.540Z,99.90
2023-04-06T01:00:26.607Z,99.90
2023-04-06T01:03:14.722Z,99.90
2023-04-06T01:06:02.156Z,99.90
2023-04-06T01:08:49.605Z,99.90
2023-04-06T01:11:37.026Z,99.90
2023-04-06T01:14:25.326Z,99.90
2023-04-06T01:17:12.921Z,99.90
2023-04-06T01:20:00.343Z,99.90
2023-04-06T01:22:47.785Z,99.90
2023-04-06T01:25:35.414Z,99.90
2023-04-06T01:28:22.975Z,99.90
2023-04-06T01:31:10.804Z,99.90
2023-04-06T01:33:58.288Z,99.90
2023-04-06T01:36:46.003Z,99.90
2023-04-06T01:39:33.551Z,99.90
2023-04-06T01:42:21.293Z,99.90
2023-04-06T01:45:09.074Z,99.90
2023-04-06T01:47:56.532Z,99.90
2023-04-06T01:50:44.090Z,99.90
2023-04-06T01:53:31.543Z,99.90
2023-04-06T01:56:18.979Z,99.90
2023-04-06T01:59:06.831Z,99.90
2023-04-06T02:01:54.530Z,99.90
2023-04-06T02:04:41.980Z,99.90
2023-04-06T02:07:29.394Z,99.90
2023-04-06T02:10:16.871Z,99.90
2023-04-06T02:13:04.354Z,99.90
2023-04-06T02:15:52.088Z,99.90
2023-04-06T02:18:39.481Z,99.90
2023-04-06T02:21:26.920Z,99.90
2023-04-06T02:24:14.322Z,99.90
2023-04-06T02:27:01.842Z,99.90
2023-04-06T02:29:49.292Z,99.90
2023-04-06T02:32:36.792Z,99.90
2023-04-06T02:35:26.677Z,99.90
2023-04-06T02:38:14.072Z,99.90
2023-04-06T02:41:01.416Z,99.90
2023-04-06T02:43:48.802Z,99.90
2023-04-06T02:46:36.369Z,99.90
2023-04-06T02:49:23.839Z,99.90
2023-04-06T02:52:11.222Z,99.90
2023-04-06T02:54:58.615Z,99.90
2023-04-06T02:57:46.115Z,99.90
2023-04-06T03:00:33.640Z,99.90
2023-04-06T03:03:21.361Z,99.90
2023-04-06T03:06:08.790Z,99.90
2023-04-06T03:08:56.178Z,99.90
2023-04-06T03:11:43.548Z,99.90
2023-04-06T03:14:30.922Z,99.90
2023-04-06T03:17:18.330Z,99.90
2023-04-06T03:20:06.351Z,99.90
2023-04-06T03:22:53.751Z,99.90
2023-04-06T03:25:41.278Z,99.90
2023-04-06T03:28:28.652Z,99.90
2023-04-06T03:31:16.093Z,99.90
2023-04-06T03:34:03.531Z,99.90
2023-04-06T03:36:59.704Z,99.90
2023-04-06T03:39:54.432Z,99.90
2023-04-06T03:42:41.855Z,99.90
2023-04-06T03:45:29.479Z,99.90
2023-04-06T03:48:16.935Z,99.90
2023-04-06T03:51:04.667Z,99.90
2023-04-06T03:53:52.388Z,99.90
2023-04-06T03:56:39.875Z,99.90
2023-04-06T03:59:27.456Z,99.90
2023-04-06T04:02:15.071Z,99.90
2023-04-06T04:05:02.650Z,99.90
2023-04-06T04:07:50.137Z,99.90
2023-04-06T04:10:37.566Z,99.90
2023-04-06T04:13:25.019Z,99.90
2023-04-06T04:16:12.623Z,99.90
2023-04-06T04:19:00.142Z,99.90
2023-04-06T04:21:48.046Z,99.90
2023-04-06T04:24:35.831Z,99.90
2023-04-06T04:27:23.258Z,99.90
2023-04-06T04:30:11.089Z,99.90
2023-04-06T04:32:58.600Z,99.90
2023-04-06T04:35:46.272Z,99.90
2023-04-06T04:38:33.731Z,99.90
2023-04-06T04:41:21.166Z,99.90
2023-04-06T04:44:08.680Z,99.90
2023-04-06T04:46:56.187Z,99.90
2023-04-06T04:49:43.765Z,99.90
2023-04-06T04:52:31.158Z,99.90
2023-04-06T04:55:18.806Z,99.90
2023-04-06T04:58:06.240Z,99.90
2023-04-06T05:00:53.629Z,99.90
2023-04-06T05:03:41.336Z,99.90
2023-04-06T05:06:29.008Z,99.90
2023-04-06T05:09:16.974Z,99.90
2023-04-06T05:12:04.505Z,99.90
2023-04-06T05:14:52.183Z,99.90
2023-04-06T05:17:39.699Z,99.90
2023-04-06T05:20:27.253Z,99.90
2023-04-06T05:23:14.676Z,99.90
2023-04-06T05:26:02.560Z,99.90
2023-04-06T05:28:50.130Z,99.90
2023-04-06T05:31:37.598Z,99.90
2023-04-06T05:34:25.150Z,99.90
2023-04-06T05:37:12.621Z,99.90
2023-04-06T05:40:00.049Z,99.90
2023-04-06T05:42:47.863Z,99.90
2023-04-06T05:45:36.037Z,99.00
2023-04-06T05:48:23.332Z,95.10
2023-04-06T05:51:11.079Z,92.80
2023-04-06T05:53:59.008Z,87.30
2023-04-06T05:56:46.568Z,79.50
2023-04-06T05:59:36.859Z,73.40
2023-04-06T06:02:24.679Z,68.30
2023-04-06T06:05:12.205Z,61.00
2023-04-06T06:07:59.747Z,57.60
2023-04-06T06:10:47.145Z,54.20
2023-04-06T06:13:34.564Z,50.70
2023-04-06T06:16:22.381Z,48.00
2023-04-06T06:19:09.871Z,45.80
2023-04-06T06:21:57.570Z,44.20
2023-04-06T06:24:45.168Z,41.50
2023-04-06T06:27:32.678Z,41.30
2023-04-06T06:30:22.471Z,40.90
2023-04-06T06:33:11.099Z,38.80
2023-04-06T06:35:58.593Z,36.80
2023-04-06T06:38:46.179Z,37.40
2023-04-06T06:41:33.671Z,37.90
2023-04-06T06:44:21.338Z,37.90
2023-04-06T06:47:08.849Z,36.40
2023-04-06T06:49:56.587Z,34.70
2023-04-06T06:52:44.594Z,33.40
2023-04-06T06:55:32.111Z,33.30
2023-04-06T06:58:21.017Z,31.10
2023-04-06T07:01:08.577Z,32.60
2023-04-06T07:03:56.370Z,31.30
2023-04-06T07:06:43.838Z,31.40
2023-04-06T07:09:31.598Z,30.00
2023-04-06T07:12:19.124Z,30.90
2023-04-06T07:15:07.225Z,32.40
2023-04-06T07:17:55.889Z,30.50
2023-04-06T07:20:43.449Z,29.50
2023-04-06T07:23:30.876Z,33.40
2023-04-06T07:26:18.280Z,35.30
2023-04-06T07:29:05.743Z,33.30
2023-04-06T07:31:53.358Z,35.80
2023-04-06T07:34:40.929Z,34.70
2023-04-06T07:37:28.319Z,31.60
2023-04-06T07:40:16.074Z,35.10
2023-04-06T07:43:03.516Z,37.20
2023-04-06T07:45:51.212Z,38.90
2023-04-06T07:48:38.598Z,41.70
2023-04-06T07:51:26.486Z,41.30
2023-04-06T07:54:13.952Z,36.80
2023-04-06T07:57:01.569Z,36.50
2023-04-06T07:59:49.066Z,37.20
2023-04-06T08:02:36.686Z,39.70
2023-04-06T08:05:24.212Z,36.90
2023-04-06T08:08:11.781Z,39.40
2023-04-06T08:11:01.471Z,39.50
2023-04-06T08:13:49.578Z,37.40
2023-04-06T08:16:37.036Z,38.60
2023-04-06T08:19:24.470Z,37.60
2023-04-06T08:22:12.512Z,38.60
2023-04-06T08:25:00.080Z,38.60
2023-04-06T08:27:47.668Z,36.80
2023-04-06T08:30:35.234Z,35.70
2023-04-06T08:33:22.878Z,36.90
2023-04-06T08:36:14.790Z,38.60
2023-04-06T08:39:02.353Z,37.60
2023-04-06T08:41:50.543Z,34.90
2023-04-06T08:44:38.810Z,33.80
2023-04-06T08:47:26.493Z,34.20
2023-04-06T08:50:14.217Z,32.80
2023-04-06T08:53:02.454Z,31.30
2023-04-06T08:55:49.935Z,33.20
2023-04-06T08:58:41.097Z,33.50
2023-04-06T09:01:29.724Z,29.50
2023-04-06T09:04:17.818Z,32.40
2023-04-06T09:07:05.634Z,31.50
2023-04-06T09:09:53.084Z,31.60
2023-04-06T09:12:40.993Z,30.70
2023-04-06T09:15:28.515Z,31.20
2023-04-06T09:18:29.662Z,29.60
2023-04-06T09:21:22.637Z,30.50
2023-04-06T09:24:12.315Z,30.20
2023-04-06T09:26:59.855Z,30.00
2023-04-06T09:29:47.271Z,28.70
2023-04-06T09:32:46.823Z,29.70
2023-04-06T09:35:34.356Z,27.80
2023-04-06T09:38:21.883Z,30.30
2023-04-06T09:41:09.814Z,29.30
2023-04-06T09:44:13.496Z,29.50
2023-04-06T09:47:01.747Z,30.40
2023-04-06T09:49:51.709Z,30.00
2023-04-06T09:52:43.591Z,27.70
2023-04-06T09:55:36.849Z,27.50
2023-04-06T09:58:27.725Z,28.40
2023-04-06T10:01:19.781Z,27.70
2023-04-06T10:04:20.723Z,27.80
2023-04-06T10:07:09.026Z,28.10
2023-04-06T10:09:56.963Z,28.40
2023-04-06T10:12:46.228Z,30.00
2023-04-06T10:15:34.960Z,29.60
2023-04-06T10:18:22.829Z,29.00
2023-04-06T10:21:13.414Z,28.70
2023-04-06T10:24:02.818Z,26.80
2023-04-06T10:27:04.965Z,27.30
2023-04-06T10:29:52.505Z,27.10
2023-04-06T10:32:40.836Z,27.60
2023-04-06T10:35:41.830Z,26.70
2023-04-06T10:38:39.658Z,26.30
2023-04-06T10:41:35.893Z,25.00
2023-04-06T10:44:25.100Z,25.10
2023-04-06T10:47:18.953Z,26.40
2023-04-06T10:50:06.979Z,24.70
2023-04-06T10:53:01.940Z,25.70
2023-04-06T10:55:51.886Z,25.20
2023-04-06T10:58:44.546Z,25.90
2023-04-06T11:01:31.976Z,25.20
2023-04-06T11:04:21.072Z,25.30
2023-04-06T11:07:08.709Z,25.40
2023-04-06T11:10:13.531Z,24.40
2023-04-06T11:13:01.956Z,23.70
2023-04-06T11:15:50.086Z,23.90
2023-04-06T11:18:37.882Z,24.10
2023-04-06T11:21:41.038Z,23.10
2023-04-06T11:24:28.687Z,23.40
2023-04-06T11:27:17.226Z,21.50
2023-04-06T11:30:05.640Z,21.90
2023-04-06T11:32:53.096Z,24.00
2023-04-06T11:35:40.837Z,25.00
2023-04-06T11:38:28.357Z,24.60
2023-04-06T11:41:16.011Z,24.10
2023-04-06T11:44:04.126Z,23.40
2023-04-06T11:46:54.886Z,23.70
2023-04-06T11:49:45.606Z,25.00
2023-04-06T11:52:33.255Z,22.00
2023-04-06T11:55:20.894Z,24.10
2023-04-06T11:58:08.387Z,24.60
2023-04-06T12:01:04.985Z,24.90
2023-04-06T12:03:53.373Z,21.80
2023-04-06T12:06:41.010Z,24.40
2023-04-06T12:09:28.466Z,23.70
2023-04-06T12:12:15.960Z,23.30
2023-04-06T12:15:03.722Z,24.40
2023-04-06T12:17:51.133Z,25.00
2023-04-06T12:20:38.588Z,23.40
2023-04-06T12:23:27.111Z,23.50
2023-04-06T12:26:14.563Z,24.10
2023-04-06T12:29:08.208Z,23.20
2023-04-06T12:31:56.097Z,23.00
2023-04-06T12:34:43.587Z,21.80
2023-04-06T12:37:30.994Z,19.00
2023-04-06T12:40:18.538Z,20.90
2023-04-06T12:43:06.145Z,21.50
2023-04-06T12:45:53.603Z,20.60
2023-04-06T12:48:41.317Z,19.50
2023-04-06T12:51:28.992Z,19.60
2023-04-06T12:54:16.458Z,19.60
2023-04-06T12:57:04.152Z,21.30
2023-04-06T12:59:52.540Z,21.60
2023-04-06T13:02:40.038Z,21.70
2023-04-06T13:05:29.564Z,21.60
2023-04-06T13:08:19.789Z,21.20
2023-04-06T13:11:10.094Z,21.30
2023-04-06T13:13:57.637Z,20.80
2023-04-06T13:16:47.931Z,19.00
2023-04-06T13:19:35.536Z,19.60
2023-04-06T13:22:22.944Z,20.30
2023-04-06T13:25:10.444Z,19.70
2023-04-06T13:27:57.839Z,19.30
2023-04-06T13:30:49.682Z,18.70
2023-04-06T13:33:37.398Z,19.50
2023-04-06T13:36:25.152Z,17.50
2023-04-06T13:39:12.607Z,17.10
2023-04-06T13:42:01.610Z,17.90
2023-04-06T13:44:51.673Z,17.70
2023-04-06T13:47:39.141Z,18.60
2023-04-06T13:50:30.643Z,19.20
2023-04-06T13:53:18.728Z,19.20
2023-04-06T13:56:06.897Z,17.80
2023-04-06T13:58:57.795Z,18.80
2023-04-06T14:01:45.404Z,18.00
2023-04-06T14:04:33.264Z,18.50
2023-04-06T14:07:22.862Z,19.50
2023-04-06T14:10:14.858Z,19.30
2023-04-06T14:13:02.645Z,17.70
2023-04-06T14:15:55.052Z,19.00
2023-04-06T14:18:43.596Z,18.30
2023-04-06T14:21:32.350Z,18.60
2023-04-06T14:24:21.668Z,18.60
2023-04-06T14:27:09.373Z,18.30
2023-04-06T14:29:57.260Z,17.70
2023-04-06T14:32:44.994Z,18.40
2023-04-06T14:35:33.512Z,18.70
2023-04-06T14:38:21.243Z,18.10
2023-04-06T14:41:09.918Z,18.70
2023-04-06T14:43:57.653Z,19.10
2023-04-06T14:46:45.384Z,19.10
2023-04-06T14:49:32.994Z,18.80
2023-04-06T14:52:20.663Z,18.50
2023-04-06T14:55:08.479Z,17.60
2023-04-06T14:57:56.215Z,18.80
2023-04-06T15:00:49.193Z,19.10
2023-04-06T15:03:37.251Z,18.90
2023-04-06T15:06:24.857Z,19.80
2023-04-06T15:09:15.927Z,19.40
2023-04-06T15:12:03.968Z,19.20
2023-04-06T15:14:51.616Z,18.50
2023-04-06T15:17:42.261Z,18.90
2023-04-06T15:20:30.637Z,18.90
2023-04-06T15:23:18.848Z,18.90
2023-04-06T15:26:06.315Z,18.50
2023-04-06T15:28:53.911Z,18.10
2023-04-06T15:31:41.841Z,18.60
2023-04-06T15:34:31.904Z,18.40
2023-04-06T15:37:19.481Z,19.60
2023-04-06T15:40:07.723Z,18.60
2023-04-06T15:42:55.558Z,18.10
2023-04-06T15:45:43.054Z,18.20
2023-04-06T15:48:31.987Z,17.50
2023-04-06T15:51:19.852Z,17.80
2023-04-06T15:54:07.406Z,17.40
2023-04-06T15:56:54.840Z,17.50
2023-04-06T15:59:42.777Z,18.00
2023-04-06T16:02:31.153Z,17.50
2023-04-06T16:05:19.083Z,17.50
2023-04-06T16:08:08.188Z,18.10
2023-04-06T16:10:55.998Z,18.00
2023-04-06T16:13:47.320Z,18.20
2023-04-06T16:16:43.615Z,18.10
2023-04-06T16:19:46.313Z,18.00
2023-04-06T16:22:36.842Z,18.10
2023-04-06T16:25:24.692Z,18.00
2023-04-06T16:28:15.493Z,18.20
2023-04-06T16:31:03.540Z,19.00
2023-04-06T16:33:53.292Z,19.20
2023-04-06T16:36:43.757Z,19.60
2023-04-06T16:39:31.277Z,20.10
2023-04-06T16:42:20.728Z,20.30
2023-04-06T16:45:08.456Z,20.30
2023-04-06T16:47:58.579Z,20.90
2023-04-06T16:50:47.127Z,20.80
2023-04-06T16:53:35.787Z,21.70
2023-04-06T16:56:23.617Z,22.60
2023-04-06T16:59:14.193Z,23.20
2023-04-06T17:02:05.612Z,22.90
2023-04-06T17:04:53.519Z,23.90
2023-04-06T17:07:46.386Z,23.50
2023-04-06T17:10:41.220Z,24.10
2023-04-06T17:13:34.640Z,24.80
2023-04-06T17:16:27.047Z,24.30
2023-04-06T17:19:16.407Z,24.80
2023-04-06T17:22:04.215Z,25.60
2023-04-06T17:24:51.948Z,26.10
2023-04-06T17:27:39.865Z,26.30
2023-04-06T17:30:27.744Z,26.10
2023-04-06T17:33:16.743Z,26.70
2023-04-06T17:36:05.442Z,26.40
2023-04-06T17:38:53.782Z,26.90
2023-04-06T17:41:41.326Z,26.60
2023-04-06T17:44:28.772Z,27.00
2023-04-06T17:47:09.854Z,27.90
2023-04-06T17:49:58.428Z,28.30
2023-04-06T17:55:34.156Z,29.60
2023-04-06T17:58:22.452Z,30.40
2023-04-06T18:01:14.468Z,31.20
2023-04-06T18:04:02.261Z,32.20
2023-04-06T18:06:49.794Z,33.30
2023-04-06T18:09:38.894Z,33.90
2023-04-06T18:12:26.467Z,33.70
2023-04-06T18:15:16.673Z,34.50
2023-04-06T18:18:05.040Z,35.80
2023-04-06T18:20:52.541Z,36.70
2023-04-06T18:23:39.977Z,37.40
2023-04-06T18:26:27.457Z,38.30
2023-04-06T18:29:15.220Z,39.20
2023-04-06T18:32:02.699Z,41.20
2023-04-06T18:34:50.400Z,43.10
2023-04-06T18:37:37.921Z,44.30
2023-04-06T18:40:36.492Z,46.00
2023-04-06T18:43:25.053Z,47.90
2023-04-06T18:46:19.202Z,50.10
2023-04-06T18:49:08.056Z,51.50
2023-04-06T18:51:57.708Z,55.50
2023-04-06T18:54:45.152Z,63.20
2023-04-06T18:57:32.640Z,74.50
2023-04-06T19:00:20.392Z,89.70
2023-04-06T19:03:08.093Z,96.70
2023-04-06T19:05:55.776Z,99.90
2023-04-06T19:08:43.351Z,99.90
2023-04-06T19:11:32.424Z,99.90
2023-04-06T19:14:20.111Z,99.90
2023-04-06T19:17:07.586Z,99.90
2023-04-06T19:19:57.733Z,99.90
2023-04-06T19:22:45.223Z,99.90
2023-04-06T19:25:32.749Z,99.90
2023-04-06T19:28:20.370Z,99.90
2023-04-06T19:31:08.913Z,99.90
2023-04-06T19:33:56.500Z,99.90
2023-04-06T19:36:44.894Z,99.90
2023-04-06T19:39:32.892Z,99.90
2023-04-06T19:42:21.722Z,99.90
2023-04-06T19:45:09.405Z,99.90
2023-04-06T19:47:56.999Z,99.90
2023-04-06T19:50:45.226Z,99.90
2023-04-06T19:53:35.960Z,99.90
2023-04-06T19:56:23.736Z,99.90
2023-04-06T19:59:11.433Z,99.90
2023-04-06T20:02:01.716Z,99.90
2023-04-06T20:04:49.645Z,99.90
2023-04-06T20:07:38.997Z,99.90
2023-04-06T20:10:29.243Z,99.90
2023-04-06T20:13:16.732Z,99.90
2023-04-06T20:16:04.722Z,99.90
2023-04-06T20:18:52.375Z,99.90
2023-04-06T20:21:41.078Z,99.90
2023-04-06T20:24:29.541Z,99.90
2023-04-06T20:27:18.498Z,99.90
2023-04-06T20:30:07.099Z,99.90
2023-04-06T20:32:55.001Z,99.90
2023-04-06T20:35:42.708Z,99.90
2023-04-06T20:38:33.791Z,99.90
2023-04-06T20:41:22.099Z,99.90
2023-04-06T20:44:10.083Z,99.90
2023-04-06T20:46:58.493Z,99.90
2023-04-06T20:49:46.209Z,99.90
2023-04-06T20:52:33.939Z,99.90
2023-04-06T20:55:21.609Z,99.90
2023-04-06T20:58:09.444Z,99.90
2023-04-06T21:00:57.014Z,99.90
2023-04-06T21:03:45.032Z,99.90
2023-04-06T21:06:32.805Z,99.90
2023-04-06T21:09:20.646Z,99.90
2023-04-06T21:12:08.410Z,99.90
2023-04-06T21:14:56.320Z,99.90
2023-04-06T21:17:44.353Z,99.90
2023-04-06T21:20:31.875Z,99.90
2023-04-06T21:23:19.392Z,99.90
2023-04-06T21:26:06.798Z,99.90
2023-04-06T21:28:54.225Z,99.90
2023-04-06T21:31:42.585Z,99.90
2023-04-06T21:34:30.277Z,99.90
2023-04-06T21:37:19.629Z,99.90
2023-04-06T21:40:08.044Z,99.90
2023-04-06T21:42:55.569Z,99.90
2023-04-06T21:45:49.700Z,99.90
2023-04-06T21:48:37.118Z,99.90
2023-04-06T21:51:25.268Z,99.90
2023-04-06T21:54:12.829Z,99.90
2023-04-06T21:57:01.704Z,99.90
2023-04-06T21:59:49.172Z,99.90
2023-04-06T22:02:37.648Z,99.90
2023-04-06T22:05:25.466Z,99.90
2023-04-06T22:08:17.828Z,99.90
2023-04-06T22:11:13.438Z,99.90
2023-04-06T22:14:01.853Z,99.90
2023-04-06T22:16:49.369Z,99.90
2023-04-06T22:19:36.879Z,99.90
2023-04-06T22:22:24.977Z,99.90
2023-04-06T22:25:12.460Z,99.90
2023-04-06T22:27:59.868Z,99.90
2023-04-06T22:30:47.606Z,99.90
2023-04-06T22:33:35.210Z,99.90
2023-04-06T22:36:22.704Z,99.90
2023-04-06T22:39:22.150Z,99.90
2023-04-06T22:42:09.665Z,99.90
2023-04-06T22:44:57.169Z,99.90
2023-04-06T22:47:44.698Z,99.90
2023-04-06T22:50:32.598Z,99.90
2023-04-06T22:53:20.095Z,99.90
2023-04-06T22:56:07.801Z,99.90
2023-04-06T22:58:56.073Z,99.90
2023-04-06T23:01:43.558Z,99.90
2023-04-06T23:04:31.188Z,99.90
2023-04-06T23:07:18.839Z,99.90
2023-04-06T23:10:07.701Z,99.90
2023-04-06T23:12:55.357Z,99.90
2023-04-06T23:15:43.848Z,99.90
2023-04-06T23:18:31.559Z,99.90
2023-04-06T23:21:19.054Z,99.90
2023-04-06T23:24:07.055Z,99.90
2023-04-06T23:26:54.575Z,99.90
2023-04-06T23:29:42.100Z,99.90
2023-04-06T23:32:30.001Z,99.90
2023-04-06T23:35:17.588Z,99.90
2023-04-06T23:38:05.032Z,99.90
2023-04-06T23:40:52.594Z,99.90
2023-04-06T23:43:40.096Z,99.90
2023-04-06T23:46:27.795Z,99.90
2023-04-06T23:49:15.560Z,99.90
2023-04-06T23:52:03.362Z,99.90
2023-04-06T23:54:50.964Z,99.90
2023-04-06T23:57:38.460Z,99.90
